sensor_id;sensor_type;location;lat;lon;timestamp;temperature;humidity
20303;DHT22;10310;50.906;4.622;2022-10-16T00:00:11;13.20;99.90
20303;DHT22;10310;50.906;4.622;2022-10-16T00:02:38;12.90;99.90
20303;DHT22;10310;50.906;4.622;2022-10-16T00:05:05;13.30;99.90
20303;DHT22;10310;50.906;4.622;2022-10-16T00:07:33;13.30;99.90
20303;DHT22;10310;50.906;4.622;2022-10-16T00:10:00;13.20;99.90
20303;DHT22;10310;50.906;4.622;2022-10-16T00:12:27;13.20;99.90
20303;DHT22;10310;50.906;4.622;2022-10-16T00:14:54;13.20;99.90
20303;DHT22;10310;50.906;4.622;2022-10-16T00:17:21;13.20;99.90
20303;DHT22;10310;50.906;4.622;2022-10-16T00:19:48;13.30;99.90
20303;DHT22;10310;50.906;4.622;2022-10-16T00:22:15;13.20;99.90
20303;DHT22;10310;50.906;4.622;2022-10-16T00:24:43;13.20;99.90
20303;DHT22;10310;50.906;4.622;2022-10-16T00:27:10;13.20;99.90
20303;DHT22;10310;50.906;4.622;2022-10-16T00:29:37;13.20;99.90
20303;DHT22;10310;50.906;4.622;2022-10-16T00:32:04;13.20;99.90
20303;DHT22;10310;50.906;4.622;2022-10-16T00:34:31;13.10;99.90
20303;DHT22;10310;50.906;4.622;2022-10-16T00:36:58;13.10;99.90
20303;DHT22;10310;50.906;4.622;2022-10-16T00:39:25;13.10;99.90
20303;DHT22;10310;50.906;4.622;2022-10-16T00:41:53;13.10;99.90
20303;DHT22;10310;50.906;4.622;2022-10-16T00:44:46;13.00;99.90
20303;DHT22;10310;50.906;4.622;2022-10-16T00:47:18;13.00;99.90
20303;DHT22;10310;50.906;4.622;2022-10-16T00:49:46;13.10;99.90
20303;DHT22;10310;50.906;4.622;2022-10-16T00:52:15;13.10;99.90
20303;DHT22;10310;50.906;4.622;2022-10-16T00:54:43;13.00;99.90
20303;DHT22;10310;50.906;4.622;2022-10-16T00:57:13;13.00;99.90
20303;DHT22;10310;50.906;4.622;2022-10-16T00:59:41;13.00;99.90
20303;DHT22;10310;50.906;4.622;2022-10-16T01:02:11;13.00;99.90
20303;DHT22;10310;50.906;4.622;2022-10-16T01:04:42;12.90;99.90
20303;DHT22;10310;50.906;4.622;2022-10-16T01:07:13;12.90;99.90
20303;DHT22;10310;50.906;4.622;2022-10-16T01:09:54;12.90;99.90
20303;DHT22;10310;50.906;4.622;2022-10-16T01:12:32;12.80;99.90
20303;DHT22;10310;50.906;4.622;2022-10-16T01:15:07;12.90;99.90
20303;DHT22;10310;50.906;4.622;2022-10-16T01:17:41;12.90;99.90
20303;DHT22;10310;50.906;4.622;2022-10-16T01:20:14;12.80;99.90
20303;DHT22;10310;50.906;4.622;2022-10-16T01:22:55;12.80;99.90
20303;DHT22;10310;50.906;4.622;2022-10-16T01:25:29;12.70;99.90
20303;DHT22;10310;50.906;4.622;2022-10-16T01:28:02;12.70;99.90
20303;DHT22;10310;50.906;4.622;2022-10-16T01:30:32;12.70;99.90
20303;DHT22;10310;50.906;4.622;2022-10-16T01:33:05;12.80;99.90
20303;DHT22;10310;50.906;4.622;2022-10-16T01:35:37;12.80;99.90
20303;DHT22;10310;50.906;4.622;2022-10-16T01:38:09;12.80;99.90
20303;DHT22;10310;50.906;4.622;2022-10-16T01:40:39;12.80;99.90
20303;DHT22;10310;50.906;4.622;2022-10-16T01:43:13;12.80;99.90
20303;DHT22;10310;50.906;4.622;2022-10-16T01:45:45;12.80;99.90
20303;DHT22;10310;50.906;4.622;2022-10-16T01:48:36;12.80;99.90
20303;DHT22;10310;50.906;4.622;2022-10-16T01:51:05;12.70;99.90
20303;DHT22;10310;50.906;4.622;2022-10-16T01:53:33;12.80;99.90
20303;DHT22;10310;50.906;4.622;2022-10-16T01:56:02;12.80;99.90
20303;DHT22;10310;50.906;4.622;2022-10-16T01:58:33;12.70;99.90
20303;DHT22;10310;50.906;4.622;2022-10-16T02:01:04;12.80;99.90
20303;DHT22;10310;50.906;4.622;2022-10-16T02:03:36;12.70;99.90
20303;DHT22;10310;50.906;4.622;2022-10-16T02:06:04;12.80;99.90
20303;DHT22;10310;50.906;4.622;2022-10-16T02:08:31;12.80;99.90
20303;DHT22;10310;50.906;4.622;2022-10-16T02:11:00;12.80;99.90
20303;DHT22;10310;50.906;4.622;2022-10-16T02:13:30;12.80;99.90
20303;DHT22;10310;50.906;4.622;2022-10-16T02:15:59;12.80;99.90
20303;DHT22;10310;50.906;4.622;2022-10-16T02:18:26;12.70;99.90
20303;DHT22;10310;50.906;4.622;2022-10-16T02:20:57;12.80;99.90
20303;DHT22;10310;50.906;4.622;2022-10-16T02:23:32;12.80;99.90
20303;DHT22;10310;50.906;4.622;2022-10-16T02:26:03;12.90;99.90
20303;DHT22;10310;50.906;4.622;2022-10-16T02:28:35;12.80;99.90
20303;DHT22;10310;50.906;4.622;2022-10-16T02:31:09;12.80;99.90
20303;DHT22;10310;50.906;4.622;2022-10-16T02:33:39;12.80;99.90
20303;DHT22;10310;50.906;4.622;2022-10-16T02:36:07;12.80;99.90
20303;DHT22;10310;50.906;4.622;2022-10-16T02:38:35;12.70;99.90
20303;DHT22;10310;50.906;4.622;2022-10-16T02:44:25;12.70;99.90
20303;DHT22;10310;50.906;4.622;2022-10-16T02:46:53;12.60;99.90
20303;DHT22;10310;50.906;4.622;2022-10-16T02:49:20;12.60;99.90
20303;DHT22;10310;50.906;4.622;2022-10-16T02:51:47;12.60;99.90
20303;DHT22;10310;50.906;4.622;2022-10-16T02:54:14;12.60;99.90
20303;DHT22;10310;50.906;4.622;2022-10-16T02:56:41;12.60;99.90
20303;DHT22;10310;50.906;4.622;2022-10-16T02:59:08;12.60;99.90
20303;DHT22;10310;50.906;4.622;2022-10-16T03:01:35;12.60;99.90
20303;DHT22;10310;50.906;4.622;2022-10-16T03:04:04;12.70;99.90
20303;DHT22;10310;50.906;4.622;2022-10-16T03:06:34;12.70;99.90
20303;DHT22;10310;50.906;4.622;2022-10-16T03:09:01;12.70;99.90
20303;DHT22;10310;50.906;4.622;2022-10-16T03:11:28;12.70;99.90
20303;DHT22;10310;50.906;4.622;2022-10-16T03:13:55;12.70;99.90
20303;DHT22;10310;50.906;4.622;2022-10-16T03:16:22;12.60;99.90
20303;DHT22;10310;50.906;4.622;2022-10-16T03:18:49;12.70;99.90
20303;DHT22;10310;50.906;4.622;2022-10-16T03:21:35;12.70;99.90
20303;DHT22;10310;50.906;4.622;2022-10-16T03:24:03;12.70;99.90
20303;DHT22;10310;50.906;4.622;2022-10-16T03:26:30;12.70;99.90
20303;DHT22;10310;50.906;4.622;2022-10-16T03:28:57;12.70;99.90
20303;DHT22;10310;50.906;4.622;2022-10-16T03:31:23;12.70;99.90
20303;DHT22;10310;50.906;4.622;2022-10-16T03:33:50;12.70;99.90
20303;DHT22;10310;50.906;4.622;2022-10-16T03:36:18;12.70;99.90
20303;DHT22;10310;50.906;4.622;2022-10-16T03:38:46;12.70;99.90
20303;DHT22;10310;50.906;4.622;2022-10-16T03:41:13;12.70;99.90
20303;DHT22;10310;50.906;4.622;2022-10-16T03:43:40;12.70;99.90
20303;DHT22;10310;50.906;4.622;2022-10-16T03:46:07;12.70;99.90
20303;DHT22;10310;50.906;4.622;2022-10-16T03:48:34;12.90;99.90
20303;DHT22;10310;50.906;4.622;2022-10-16T03:51:01;12.80;99.90
20303;DHT22;10310;50.906;4.622;2022-10-16T03:53:28;13.00;99.90
20303;DHT22;10310;50.906;4.622;2022-10-16T03:55:56;12.80;99.90
20303;DHT22;10310;50.906;4.622;2022-10-16T03:58:23;12.80;99.90
20303;DHT22;10310;50.906;4.622;2022-10-16T04:00:50;12.80;99.90
20303;DHT22;10310;50.906;4.622;2022-10-16T04:06:39;12.90;99.90
20303;DHT22;10310;50.906;4.622;2022-10-16T04:09:06;13.00;99.90
20303;DHT22;10310;50.906;4.622;2022-10-16T04:11:35;12.90;99.90
20303;DHT22;10310;50.906;4.622;2022-10-16T04:14:01;12.90;99.90
20303;DHT22;10310;50.906;4.622;2022-10-16T04:16:28;12.90;99.90
20303;DHT22;10310;50.906;4.622;2022-10-16T04:18:55;12.90;99.90
20303;DHT22;10310;50.906;4.622;2022-10-16T04:21:22;12.90;99.90
20303;DHT22;10310;50.906;4.622;2022-10-16T04:23:49;13.40;99.90
20303;DHT22;10310;50.906;4.622;2022-10-16T04:26:17;12.80;99.90
20303;DHT22;10310;50.906;4.622;2022-10-16T04:28:45;12.80;99.90
20303;DHT22;10310;50.906;4.622;2022-10-16T04:31:12;12.80;99.90
20303;DHT22;10310;50.906;4.622;2022-10-16T04:33:42;12.80;99.90
20303;DHT22;10310;50.906;4.622;2022-10-16T04:36:09;12.80;99.90
20303;DHT22;10310;50.906;4.622;2022-10-16T04:38:36;12.70;99.90
20303;DHT22;10310;50.906;4.622;2022-10-16T04:41:05;12.70;99.90
20303;DHT22;10310;50.906;4.622;2022-10-16T04:43:32;12.70;99.90
20303;DHT22;10310;50.906;4.622;2022-10-16T04:46:00;12.60;99.90
20303;DHT22;10310;50.906;4.622;2022-10-16T04:48:30;12.60;99.90
20303;DHT22;10310;50.906;4.622;2022-10-16T04:50:57;12.60;99.90
20303;DHT22;10310;50.906;4.622;2022-10-16T04:53:24;12.60;99.90
20303;DHT22;10310;50.906;4.622;2022-10-16T04:55:51;12.60;99.90
20303;DHT22;10310;50.906;4.622;2022-10-16T04:58:18;12.60;99.90
20303;DHT22;10310;50.906;4.622;2022-10-16T05:00:45;12.60;99.90
20303;DHT22;10310;50.906;4.622;2022-10-16T05:03:14;12.60;99.90
20303;DHT22;10310;50.906;4.622;2022-10-16T05:05:43;12.50;99.90
20303;DHT22;10310;50.906;4.622;2022-10-16T05:08:12;12.50;99.90
20303;DHT22;10310;50.906;4.622;2022-10-16T05:10:41;12.60;99.90
20303;DHT22;10310;50.906;4.622;2022-10-16T05:13:09;12.50;99.90
20303;DHT22;10310;50.906;4.622;2022-10-16T05:15:37;12.50;99.90
20303;DHT22;10310;50.906;4.622;2022-10-16T05:18:04;12.50;99.90
20303;DHT22;10310;50.906;4.622;2022-10-16T05:20:32;12.50;99.90
20303;DHT22;10310;50.906;4.622;2022-10-16T05:22:59;12.50;99.90
20303;DHT22;10310;50.906;4.622;2022-10-16T05:25:26;12.50;99.90
20303;DHT22;10310;50.906;4.622;2022-10-16T05:27:53;12.50;99.90
20303;DHT22;10310;50.906;4.622;2022-10-16T05:30:20;12.50;99.90
20303;DHT22;10310;50.906;4.622;2022-10-16T05:32:49;12.40;99.90
20303;DHT22;10310;50.906;4.622;2022-10-16T05:38:39;12.30;99.90
20303;DHT22;10310;50.906;4.622;2022-10-16T05:41:06;12.30;99.90
20303;DHT22;10310;50.906;4.622;2022-10-16T05:43:33;12.30;99.90
20303;DHT22;10310;50.906;4.622;2022-10-16T05:46:04;12.30;99.90
20303;DHT22;10310;50.906;4.622;2022-10-16T05:48:32;12.30;99.90
20303;DHT22;10310;50.906;4.622;2022-10-16T05:51:01;12.50;99.90
20303;DHT22;10310;50.906;4.622;2022-10-16T05:53:29;12.20;99.90
20303;DHT22;10310;50.906;4.622;2022-10-16T05:55:58;12.20;99.90
20303;DHT22;10310;50.906;4.622;2022-10-16T05:58:29;12.30;99.90
20303;DHT22;10310;50.906;4.622;2022-10-16T06:00:58;12.30;99.90
20303;DHT22;10310;50.906;4.622;2022-10-16T06:03:25;12.30;99.90
20303;DHT22;10310;50.906;4.622;2022-10-16T06:05:53;12.30;99.90
20303;DHT22;10310;50.906;4.622;2022-10-16T06:08:38;12.30;99.90
20303;DHT22;10310;50.906;4.622;2022-10-16T06:11:09;12.30;99.90
20303;DHT22;10310;50.906;4.622;2022-10-16T06:13:37;12.30;99.90
20303;DHT22;10310;50.906;4.622;2022-10-16T06:16:07;12.30;99.90
20303;DHT22;10310;50.906;4.622;2022-10-16T06:18:34;12.50;99.90
20303;DHT22;10310;50.906;4.622;2022-10-16T06:21:07;12.30;99.90
20303;DHT22;10310;50.906;4.622;2022-10-16T06:23:34;12.30;99.90
20303;DHT22;10310;50.906;4.622;2022-10-16T06:26:07;12.30;99.90
20303;DHT22;10310;50.906;4.622;2022-10-16T06:28:34;12.40;99.90
20303;DHT22;10310;50.906;4.622;2022-10-16T06:31:01;12.40;99.90
20303;DHT22;10310;50.906;4.622;2022-10-16T06:33:28;12.40;99.90
20303;DHT22;10310;50.906;4.622;2022-10-16T06:36:00;12.40;99.90
20303;DHT22;10310;50.906;4.622;2022-10-16T06:38:28;12.40;99.90
20303;DHT22;10310;50.906;4.622;2022-10-16T06:40:55;12.40;99.90
20303;DHT22;10310;50.906;4.622;2022-10-16T06:43:23;12.50;99.90
20303;DHT22;10310;50.906;4.622;2022-10-16T06:45:51;12.50;99.90
20303;DHT22;10310;50.906;4.622;2022-10-16T06:48:19;12.50;99.90
20303;DHT22;10310;50.906;4.622;2022-10-16T06:50:55;12.50;99.90
20303;DHT22;10310;50.906;4.622;2022-10-16T06:53:22;12.60;99.90
20303;DHT22;10310;50.906;4.622;2022-10-16T06:55:49;12.70;99.90
20303;DHT22;10310;50.906;4.622;2022-10-16T06:58:16;12.90;99.90
20303;DHT22;10310;50.906;4.622;2022-10-16T07:00:44;12.90;99.90
20303;DHT22;10310;50.906;4.622;2022-10-16T07:03:11;13.00;99.90
20303;DHT22;10310;50.906;4.622;2022-10-16T07:05:39;13.10;99.90
20303;DHT22;10310;50.906;4.622;2022-10-16T07:08:06;13.10;99.90
20303;DHT22;10310;50.906;4.622;2022-10-16T07:10:33;13.20;99.90
20303;DHT22;10310;50.906;4.622;2022-10-16T07:13:00;13.30;99.90
20303;DHT22;10310;50.906;4.622;2022-10-16T07:15:27;13.40;99.90
20303;DHT22;10310;50.906;4.622;2022-10-16T07:17:55;13.40;99.90
20303;DHT22;10310;50.906;4.622;2022-10-16T07:20:22;13.40;99.90
20303;DHT22;10310;50.906;4.622;2022-10-16T07:22:49;13.40;99.90
20303;DHT22;10310;50.906;4.622;2022-10-16T07:25:16;13.40;99.90
20303;DHT22;10310;50.906;4.622;2022-10-16T07:27:43;13.40;99.90
20303;DHT22;10310;50.906;4.622;2022-10-16T07:30:10;13.40;99.90
20303;DHT22;10310;50.906;4.622;2022-10-16T07:32:37;13.40;99.90
20303;DHT22;10310;50.906;4.622;2022-10-16T07:35:07;13.50;99.90
20303;DHT22;10310;50.906;4.622;2022-10-16T07:37:34;13.60;99.90
20303;DHT22;10310;50.906;4.622;2022-10-16T07:40:00;13.70;99.90
20303;DHT22;10310;50.906;4.622;2022-10-16T07:42:27;13.80;99.90
20303;DHT22;10310;50.906;4.622;2022-10-16T07:44:54;13.90;99.90
20303;DHT22;10310;50.906;4.622;2022-10-16T07:47:21;14.00;99.90
20303;DHT22;10310;50.906;4.622;2022-10-16T07:49:48;14.10;99.90
20303;DHT22;10310;50.906;4.622;2022-10-16T07:52:16;14.20;99.90
20303;DHT22;10310;50.906;4.622;2022-10-16T07:54:43;14.30;99.90
20303;DHT22;10310;50.906;4.622;2022-10-16T07:57:10;14.40;99.90
20303;DHT22;10310;50.906;4.622;2022-10-16T07:59:37;14.50;99.90
20303;DHT22;10310;50.906;4.622;2022-10-16T08:02:04;14.60;99.90
20303;DHT22;10310;50.906;4.622;2022-10-16T08:04:31;14.70;99.90
20303;DHT22;10310;50.906;4.622;2022-10-16T08:06:58;14.80;99.90
20303;DHT22;10310;50.906;4.622;2022-10-16T08:09:26;14.80;99.90
20303;DHT22;10310;50.906;4.622;2022-10-16T08:11:53;15.00;99.90
20303;DHT22;10310;50.906;4.622;2022-10-16T08:14:20;15.00;99.90
20303;DHT22;10310;50.906;4.622;2022-10-16T08:16:47;15.10;99.90
20303;DHT22;10310;50.906;4.622;2022-10-16T08:19:14;15.20;99.90
20303;DHT22;10310;50.906;4.622;2022-10-16T08:21:41;15.20;99.90
20303;DHT22;10310;50.906;4.622;2022-10-16T08:24:08;15.40;99.90
20303;DHT22;10310;50.906;4.622;2022-10-16T08:26:36;15.40;99.90
20303;DHT22;10310;50.906;4.622;2022-10-16T08:29:03;15.50;99.90
20303;DHT22;10310;50.906;4.622;2022-10-16T08:31:30;15.60;99.90
20303;DHT22;10310;50.906;4.622;2022-10-16T08:33:57;15.70;99.90
20303;DHT22;10310;50.906;4.622;2022-10-16T08:36:24;15.80;99.90
20303;DHT22;10310;50.906;4.622;2022-10-16T08:38:51;15.80;99.90
20303;DHT22;10310;50.906;4.622;2022-10-16T08:42:03;15.80;99.90
20303;DHT22;10310;50.906;4.622;2022-10-16T08:44:57;15.90;99.90
20303;DHT22;10310;50.906;4.622;2022-10-16T08:47:29;16.00;99.90
20303;DHT22;10310;50.906;4.622;2022-10-16T08:50:09;16.00;99.90
20303;DHT22;10310;50.906;4.622;2022-10-16T08:52:40;16.10;99.90
20303;DHT22;10310;50.906;4.622;2022-10-16T08:58:29;16.30;99.90
20303;DHT22;10310;50.906;4.622;2022-10-16T09:01:00;16.40;99.90
20303;DHT22;10310;50.906;4.622;2022-10-16T09:06:43;16.50;99.90
20303;DHT22;10310;50.906;4.622;2022-10-16T09:09:39;16.60;99.90
20303;DHT22;10310;50.906;4.622;2022-10-16T09:12:14;16.70;99.90
20303;DHT22;10310;50.906;4.622;2022-10-16T09:14:52;16.80;99.90
20303;DHT22;10310;50.906;4.622;2022-10-16T09:17:32;16.80;99.90
20303;DHT22;10310;50.906;4.622;2022-10-16T09:20:17;16.90;99.90
20303;DHT22;10310;50.906;4.622;2022-10-16T09:22:44;17.10;99.90
20303;DHT22;10310;50.906;4.622;2022-10-16T09:25:13;17.10;99.90
20303;DHT22;10310;50.906;4.622;2022-10-16T09:27:42;17.10;99.90
20303;DHT22;10310;50.906;4.622;2022-10-16T09:30:15;17.10;99.90
20303;DHT22;10310;50.906;4.622;2022-10-16T09:32:43;17.10;99.90
20303;DHT22;10310;50.906;4.622;2022-10-16T09:35:16;17.20;99.90
20303;DHT22;10310;50.906;4.622;2022-10-16T09:37:45;17.30;99.90
20303;DHT22;10310;50.906;4.622;2022-10-16T09:40:23;17.40;99.90
20303;DHT22;10310;50.906;4.622;2022-10-16T09:42:55;17.40;99.90
20303;DHT22;10310;50.906;4.622;2022-10-16T09:45:25;17.50;99.90
20303;DHT22;10310;50.906;4.622;2022-10-16T09:47:53;17.60;99.90
20303;DHT22;10310;50.906;4.622;2022-10-16T09:50:23;17.60;99.90
20303;DHT22;10310;50.906;4.622;2022-10-16T09:53:02;17.70;99.90
20303;DHT22;10310;50.906;4.622;2022-10-16T09:55:29;17.80;99.90
20303;DHT22;10310;50.906;4.622;2022-10-16T09:57:56;17.90;99.90
20303;DHT22;10310;50.906;4.622;2022-10-16T10:00:25;18.00;99.90
20303;DHT22;10310;50.906;4.622;2022-10-16T10:02:53;18.10;99.90
20303;DHT22;10310;50.906;4.622;2022-10-16T10:05:22;18.20;99.90
20303;DHT22;10310;50.906;4.622;2022-10-16T10:07:56;18.30;97.80
20303;DHT22;10310;50.906;4.622;2022-10-16T10:10:25;18.40;86.70
20303;DHT22;10310;50.906;4.622;2022-10-16T10:12:53;18.40;38.10
20303;DHT22;10310;50.906;4.622;2022-10-16T10:15:21;18.30;11.10
20303;DHT22;10310;50.906;4.622;2022-10-16T10:17:52;18.30;1.00
20303;DHT22;10310;50.906;4.622;2022-10-16T10:20:26;18.30;7.70
20303;DHT22;10310;50.906;4.622;2022-10-16T10:22:54;18.40;39.20
20303;DHT22;10310;50.906;4.622;2022-10-16T10:25:43;18.50;28.10
20303;DHT22;10310;50.906;4.622;2022-10-16T10:28:21;18.60;1.00
20303;DHT22;10310;50.906;4.622;2022-10-16T10:30:58;18.60;1.00
20303;DHT22;10310;50.906;4.622;2022-10-16T10:33:37;18.80;1.00
20303;DHT22;10310;50.906;4.622;2022-10-16T10:36:15;18.90;1.00
20303;DHT22;10310;50.906;4.622;2022-10-16T10:38:49;18.70;1.00
20303;DHT22;10310;50.906;4.622;2022-10-16T10:41:36;18.70;1.00
20303;DHT22;10310;50.906;4.622;2022-10-16T10:44:16;18.70;1.00
20303;DHT22;10310;50.906;4.622;2022-10-16T10:46:50;18.80;1.00
20303;DHT22;10310;50.906;4.622;2022-10-16T10:49:32;19.00;1.00
20303;DHT22;10310;50.906;4.622;2022-10-16T10:52:10;19.20;1.00
20303;DHT22;10310;50.906;4.622;2022-10-16T10:54:45;19.30;99.90
20303;DHT22;10310;50.906;4.622;2022-10-16T10:57:21;19.50;99.90
20303;DHT22;10310;50.906;4.622;2022-10-16T11:00:03;19.80;99.90
20303;DHT22;10310;50.906;4.622;2022-10-16T11:02:38;19.90;97.80
20303;DHT22;10310;50.906;4.622;2022-10-16T11:05:27;19.80;90.70
20303;DHT22;10310;50.906;4.622;2022-10-16T11:07:59;19.90;99.90
20303;DHT22;10310;50.906;4.622;2022-10-16T11:10:30;19.90;1.00
20303;DHT22;10310;50.906;4.622;2022-10-16T11:13:07;19.90;1.00
20303;DHT22;10310;50.906;4.622;2022-10-16T11:15:39;20.00;78.80
20303;DHT22;10310;50.906;4.622;2022-10-16T11:18:32;19.90;99.90
20303;DHT22;10310;50.906;4.622;2022-10-16T11:21:04;19.70;99.90
20303;DHT22;10310;50.906;4.622;2022-10-16T11:23:39;19.70;1.00
20303;DHT22;10310;50.906;4.622;2022-10-16T11:26:14;19.70;99.90
20303;DHT22;10310;50.906;4.622;2022-10-16T11:28:45;19.80;1.00
20303;DHT22;10310;50.906;4.622;2022-10-16T11:31:17;19.80;1.00
20303;DHT22;10310;50.906;4.622;2022-10-16T11:33:51;19.90;1.00
20303;DHT22;10310;50.906;4.622;2022-10-16T11:36:27;20.00;1.00
20303;DHT22;10310;50.906;4.622;2022-10-16T11:39:02;20.20;1.00
20303;DHT22;10310;50.906;4.622;2022-10-16T11:41:34;20.30;1.00
20303;DHT22;10310;50.906;4.622;2022-10-16T11:44:23;20.60;1.00
20303;DHT22;10310;50.906;4.622;2022-10-16T11:47:00;20.90;99.90
20303;DHT22;10310;50.906;4.622;2022-10-16T11:49:31;21.20;1.00
20303;DHT22;10310;50.906;4.622;2022-10-16T11:52:05;21.50;1.00
20303;DHT22;10310;50.906;4.622;2022-10-16T11:54:39;21.40;99.90
20303;DHT22;10310;50.906;4.622;2022-10-16T11:57:12;21.20;1.00
20303;DHT22;10310;50.906;4.622;2022-10-16T11:59:43;20.90;99.90
20303;DHT22;10310;50.906;4.622;2022-10-16T12:02:40;20.60;99.90
20303;DHT22;10310;50.906;4.622;2022-10-16T12:05:18;20.40;99.90
20303;DHT22;10310;50.906;4.622;2022-10-16T12:07:52;20.20;1.00
20303;DHT22;10310;50.906;4.622;2022-10-16T12:10:26;20.10;99.90
20303;DHT22;10310;50.906;4.622;2022-10-16T12:12:53;20.20;1.00
20303;DHT22;10310;50.906;4.622;2022-10-16T12:15:24;20.40;99.90
20303;DHT22;10310;50.906;4.622;2022-10-16T12:17:52;20.70;27.30
20303;DHT22;10310;50.906;4.622;2022-10-16T12:20:25;20.90;99.90
20303;DHT22;10310;50.906;4.622;2022-10-16T12:22:56;21.00;99.90
20303;DHT22;10310;50.906;4.622;2022-10-16T12:25:26;21.20;73.70
20303;DHT22;10310;50.906;4.622;2022-10-16T12:28:02;21.20;99.90
20303;DHT22;10310;50.906;4.622;2022-10-16T12:30:31;21.20;99.90
20303;DHT22;10310;50.906;4.622;2022-10-16T12:33:02;21.10;1.00
20303;DHT22;10310;50.906;4.622;2022-10-16T12:35:32;20.90;99.90
20303;DHT22;10310;50.906;4.622;2022-10-16T12:38:15;20.80;99.90
20303;DHT22;10310;50.906;4.622;2022-10-16T12:40:43;20.90;1.00
20303;DHT22;10310;50.906;4.622;2022-10-16T12:43:13;21.00;1.00
20303;DHT22;10310;50.906;4.622;2022-10-16T12:45:59;21.00;99.90
20303;DHT22;10310;50.906;4.622;2022-10-16T12:48:27;21.10;99.90
20303;DHT22;10310;50.906;4.622;2022-10-16T12:50:54;21.30;99.90
20303;DHT22;10310;50.906;4.622;2022-10-16T12:53:24;21.30;99.90
20303;DHT22;10310;50.906;4.622;2022-10-16T12:55:59;21.00;11.30
20303;DHT22;10310;50.906;4.622;2022-10-16T12:58:43;20.80;99.90
20303;DHT22;10310;50.906;4.622;2022-10-16T13:01:20;20.60;1.00
20303;DHT22;10310;50.906;4.622;2022-10-16T13:04:05;20.70;99.80
20303;DHT22;10310;50.906;4.622;2022-10-16T13:06:42;20.80;1.00
20303;DHT22;10310;50.906;4.622;2022-10-16T13:09:27;20.80;1.00
20303;DHT22;10310;50.906;4.622;2022-10-16T13:17:47;20.80;99.90
20303;DHT22;10310;50.906;4.622;2022-10-16T13:20:22;20.80;99.90
20303;DHT22;10310;50.906;4.622;2022-10-16T13:23:00;20.90;99.90
20303;DHT22;10310;50.906;4.622;2022-10-16T13:25:40;21.00;88.20
20303;DHT22;10310;50.906;4.622;2022-10-16T13:28:11;21.10;1.00
20303;DHT22;10310;50.906;4.622;2022-10-16T13:30:40;21.20;99.90
20303;DHT22;10310;50.906;4.622;2022-10-16T13:33:16;21.10;1.00
20303;DHT22;10310;50.906;4.622;2022-10-16T13:35:49;20.90;88.70
20303;DHT22;10310;50.906;4.622;2022-10-16T13:38:19;20.80;99.90
20303;DHT22;10310;50.906;4.622;2022-10-16T13:40:53;20.70;99.90
20303;DHT22;10310;50.906;4.622;2022-10-16T13:43:23;20.80;99.90
20303;DHT22;10310;50.906;4.622;2022-10-16T13:45:56;20.90;99.90
20303;DHT22;10310;50.906;4.622;2022-10-16T13:48:23;21.00;99.90
20303;DHT22;10310;50.906;4.622;2022-10-16T13:51:06;21.50;11.10
20303;DHT22;10310;50.906;4.622;2022-10-16T13:53:34;21.20;1.00
20303;DHT22;10310;50.906;4.622;2022-10-16T13:56:06;21.00;1.00
20303;DHT22;10310;50.906;4.622;2022-10-16T13:58:33;20.70;99.90
20303;DHT22;10310;50.906;4.622;2022-10-16T14:01:02;20.60;1.00
20303;DHT22;10310;50.906;4.622;2022-10-16T14:03:31;20.50;99.90
20303;DHT22;10310;50.906;4.622;2022-10-16T14:06:01;20.40;1.00
20303;DHT22;10310;50.906;4.622;2022-10-16T14:08:29;20.40;99.90
20303;DHT22;10310;50.906;4.622;2022-10-16T14:10:59;20.40;99.90
20303;DHT22;10310;50.906;4.622;2022-10-16T14:13:34;20.50;1.00
20303;DHT22;10310;50.906;4.622;2022-10-16T14:16:06;20.60;27.80
20303;DHT22;10310;50.906;4.622;2022-10-16T14:18:34;20.50;99.90
20303;DHT22;10310;50.906;4.622;2022-10-16T14:21:06;20.30;1.00
20303;DHT22;10310;50.906;4.622;2022-10-16T14:23:36;20.10;59.60
20303;DHT22;10310;50.906;4.622;2022-10-16T14:26:15;20.10;1.00
20303;DHT22;10310;50.906;4.622;2022-10-16T14:28:45;20.00;5.90
20303;DHT22;10310;50.906;4.622;2022-10-16T14:31:27;19.90;99.90
20303;DHT22;10310;50.906;4.622;2022-10-16T14:33:55;20.00;99.90
20303;DHT22;10310;50.906;4.622;2022-10-16T14:36:22;20.00;1.00
20303;DHT22;10310;50.906;4.622;2022-10-16T14:39:00;20.00;99.90
20303;DHT22;10310;50.906;4.622;2022-10-16T14:41:29;20.00;99.90
20303;DHT22;10310;50.906;4.622;2022-10-16T14:44:01;20.00;53.20
20303;DHT22;10310;50.906;4.622;2022-10-16T14:46:31;20.10;1.00
20303;DHT22;10310;50.906;4.622;2022-10-16T14:49:03;20.10;1.00
20303;DHT22;10310;50.906;4.622;2022-10-16T14:51:31;20.10;1.00
20303;DHT22;10310;50.906;4.622;2022-10-16T14:53:58;20.10;1.00
20303;DHT22;10310;50.906;4.622;2022-10-16T14:56:27;20.20;1.00
20303;DHT22;10310;50.906;4.622;2022-10-16T14:58:57;20.20;99.90
20303;DHT22;10310;50.906;4.622;2022-10-16T15:01:24;20.10;1.00
20303;DHT22;10310;50.906;4.622;2022-10-16T15:03:51;20.10;1.00
20303;DHT22;10310;50.906;4.622;2022-10-16T15:06:20;20.10;1.00
20303;DHT22;10310;50.906;4.622;2022-10-16T15:08:47;20.00;73.90
20303;DHT22;10310;50.906;4.622;2022-10-16T15:11:16;19.80;1.00
20303;DHT22;10310;50.906;4.622;2022-10-16T15:13:43;19.70;1.00
20303;DHT22;10310;50.906;4.622;2022-10-16T15:16:13;19.70;99.90
20303;DHT22;10310;50.906;4.622;2022-10-16T15:18:41;19.70;1.00
20303;DHT22;10310;50.906;4.622;2022-10-16T15:21:09;19.60;1.00
20303;DHT22;10310;50.906;4.622;2022-10-16T15:23:42;19.60;1.00
20303;DHT22;10310;50.906;4.622;2022-10-16T15:26:09;19.70;1.00
20303;DHT22;10310;50.906;4.622;2022-10-16T15:28:36;19.70;99.90
20303;DHT22;10310;50.906;4.622;2022-10-16T15:31:04;19.70;5.20
20303;DHT22;10310;50.906;4.622;2022-10-16T15:33:32;19.50;99.90
20303;DHT22;10310;50.906;4.622;2022-10-16T15:36:01;19.50;99.90
20303;DHT22;10310;50.906;4.622;2022-10-16T15:38:30;19.30;1.00
20303;DHT22;10310;50.906;4.622;2022-10-16T15:40:57;19.20;99.90
20303;DHT22;10310;50.906;4.622;2022-10-16T15:43:24;19.00;99.90
20303;DHT22;10310;50.906;4.622;2022-10-16T15:45:59;18.90;1.00
20303;DHT22;10310;50.906;4.622;2022-10-16T15:48:27;18.70;1.00
20303;DHT22;10310;50.906;4.622;2022-10-16T15:50:55;18.60;1.00
20303;DHT22;10310;50.906;4.622;2022-10-16T15:53:22;18.50;1.00
20303;DHT22;10310;50.906;4.622;2022-10-16T15:55:49;18.30;1.00
20303;DHT22;10310;50.906;4.622;2022-10-16T15:58:16;18.30;6.90
20303;DHT22;10310;50.906;4.622;2022-10-16T16:00:43;18.10;99.90
20303;DHT22;10310;50.906;4.622;2022-10-16T16:03:10;18.00;99.90
20303;DHT22;10310;50.906;4.622;2022-10-16T16:05:38;18.00;99.90
20303;DHT22;10310;50.906;4.622;2022-10-16T16:08:07;17.90;99.90
20303;DHT22;10310;50.906;4.622;2022-10-16T16:10:34;17.80;99.90
20303;DHT22;10310;50.906;4.622;2022-10-16T16:13:01;17.70;99.90
20303;DHT22;10310;50.906;4.622;2022-10-16T16:15:28;17.60;99.90